Time;durP1;ratioP1;P1;durP2;ratioP2;P2;SDS_P1;SDS_P2;PMS_P1;PMS_P2;Temp;Humidity;BMP_temperature;BMP_pressure;BME280_temperature;BME280_humidity;BME280_pressure;Samples;Min_cycle;Max_cycle;Signal;HPM_P1;HPM_P2
2023/03/20 00:01:32;;;;;;;15.52;4.80;;;;;;;;;;4900419;29;20063;-63
2023/03/20 00:04:02;;;;;;;13.43;5.05;;;;;;;;;;4912983;29;20055;-64
2023/03/20 00:06:32;;;;;;;15.05;4.18;;;;;;;;;;4912976;29;20071;-64
2023/03/20 00:09:02;;;;;;;14.20;3.63;;;;;;;;;;4912730;29;20059;-64
2023/03/20 00:11:40;;;;;;;16.67;3.60;;;;;;;;;;4916435;29;20055;-64
2023/03/20 00:14:13;;;;;;;13.98;3.90;;;;;;;;;;4956588;28;20057;-64
2023/03/20 00:16:44;;;;;;;15.10;5.57;;;;;;;;;;4950989;29;20455;-64
2023/03/20 00:19:26;;;;;;;15.73;6.45;;;;;;;;;;4951268;29;20059;-64
2023/03/20 00:21:57;;;;;;;13.18;5.15;;;;;;;;;;4935409;29;20092;-63
2023/03/20 00:24:27;;;;;;;23.10;4.90;;;;;;;;;;4901228;29;20064;-64
2023/03/20 00:26:56;;;;;;;16.00;4.95;;;;;;;;;;4894014;29;20389;-64
2023/03/20 00:29:30;;;;;;;13.80;5.03;;;;;;;;;;4901313;29;20101;-64
2023/03/20 00:32:00;;;;;;;9.25;3.95;;;;;;;;;;4894064;29;20060;-64
2023/03/20 00:34:31;;;;;;;13.73;4.22;;;;;;;;;;4894199;29;20061;-67
2023/03/20 00:37:01;;;;;;;11.50;3.55;;;;;;;;;;4878684;29;20432;-63
2023/03/20 00:39:31;;;;;;;14.32;3.78;;;;;;;;;;4878224;29;20053;-64
2023/03/20 00:42:07;;;;;;;13.48;4.53;;;;;;;;;;4881486;29;20430;-64
2023/03/20 00:44:39;;;;;;;7.80;3.90;;;;;;;;;;4888129;29;20060;-64
2023/03/20 00:47:17;;;;;;;12.63;4.25;;;;;;;;;;4907095;29;20523;-64
2023/03/20 00:49:50;;;;;;;17.27;4.22;;;;;;;;;;4912874;29;20056;-64
2023/03/20 00:52:21;;;;;;;10.38;3.72;;;;;;;;;;4912589;29;20048;-64
2023/03/20 00:54:51;;;;;;;8.43;3.50;;;;;;;;;;4900147;29;20096;-64
2023/03/20 00:57:30;;;;;;;9.32;3.60;;;;;;;;;;4931227;29;20059;-64
2023/03/20 01:00:13;;;;;;;6.95;3.17;;;;;;;;;;4926914;29;20066;-64
2023/03/20 01:02:45;;;;;;;9.65;3.75;;;;;;;;;;4961887;28;20047;-64
2023/03/20 01:05:15;;;;;;;13.75;4.53;;;;;;;;;;4971814;28;20054;-64
2023/03/20 01:07:46;;;;;;;12.38;4.82;;;;;;;;;;4979544;28;20062;-64
2023/03/20 01:10:16;;;;;;;13.32;4.15;;;;;;;;;;4993043;28;20395;-64
2023/03/20 01:12:47;;;;;;;15.23;4.38;;;;;;;;;;4992726;28;20058;-64
2023/03/20 01:15:21;;;;;;;14.30;4.05;;;;;;;;;;4973390;28;20067;-65
2023/03/20 01:17:51;;;;;;;8.98;3.70;;;;;;;;;;4973083;28;20062;-65
2023/03/20 01:20:28;;;;;;;10.98;3.78;;;;;;;;;;4973347;28;20495;-64
2023/03/20 01:22:57;;;;;;;10.68;3.22;;;;;;;;;;4973155;28;20066;-64
2023/03/20 01:25:27;;;;;;;9.40;3.30;;;;;;;;;;4973126;28;20099;-64
2023/03/20 01:27:57;;;;;;;11.25;3.10;;;;;;;;;;4967505;28;20054;-64
2023/03/20 01:30:30;;;;;;;8.70;3.00;;;;;;;;;;4940263;29;20064;-63
2023/03/20 01:33:01;;;;;;;8.43;3.30;;;;;;;;;;4964698;28;20058;-64
2023/03/20 01:35:31;;;;;;;14.50;3.78;;;;;;;;;;4953932;29;20051;-63
2023/03/20 01:38:14;;;;;;;15.43;4.10;;;;;;;;;;4992224;28;20547;-64
2023/03/20 01:40:58;;;;;;;11.65;3.38;;;;;;;;;;4972797;28;20050;-64
2023/03/20 01:43:33;;;;;;;8.25;2.97;;;;;;;;;;4972598;28;20047;-63
2023/03/20 01:46:16;;;;;;;25.23;4.55;;;;;;;;;;4957027;28;20063;-63
2023/03/20 01:48:56;;;;;;;8.60;3.33;;;;;;;;;;4972409;28;20051;-64
2023/03/20 01:51:31;;;;;;;32.08;4.07;;;;;;;;;;4940362;28;20074;-63
2023/03/20 01:54:12;;;;;;;41.72;5.15;;;;;;;;;;4933964;29;20508;-64
2023/03/20 01:56:59;;;;;;;7.45;2.83;;;;;;;;;;4933747;29;20616;-64
2023/03/20 01:59:37;;;;;;;8.18;2.78;;;;;;;;;;4933796;29;20055;-64
2023/03/20 02:02:09;;;;;;;10.98;2.67;;;;;;;;;;4912956;29;20048;-65
2023/03/20 02:04:45;;;;;;;10.90;2.85;;;;;;;;;;4914532;29;20060;-66
2023/03/20 02:07:19;;;;;;;10.10;2.70;;;;;;;;;;4895922;29;20537;-65
2023/03/20 02:10:14;;;;;;;10.52;3.05;;;;;;;;;;4901039;29;20428;-64
2023/03/20 02:13:02;;;;;;;8.32;2.65;;;;;;;;;;4877994;29;20060;-65
2023/03/20 02:15:57;;;;;;;12.05;2.15;;;;;;;;;;4891245;29;20053;-64
2023/03/20 02:18:51;;;;;;;13.98;2.35;;;;;;;;;;4877249;29;20053;-65
2023/03/20 02:21:42;;;;;;;6.88;2.30;;;;;;;;;;4876945;29;20061;-65
2023/03/20 02:24:30;;;;;;;7.03;2.55;;;;;;;;;;4895293;29;20405;-64
2023/03/20 02:27:06;;;;;;;7.13;2.25;;;;;;;;;;4914187;29;20061;-65
2023/03/20 02:29:50;;;;;;;9.48;2.40;;;;;;;;;;4882522;29;20057;-65
2023/03/20 02:32:26;;;;;;;7.40;2.17;;;;;;;;;;4829678;29;20059;-65
2023/03/20 02:35:34;;;;;;;11.00;2.47;;;;;;;;;;4851764;29;20070;-65
2023/03/20 02:38:22;;;;;;;7.03;2.28;;;;;;;;;;4827018;29;20462;-65
2023/03/20 02:41:00;;;;;;;8.68;2.08;;;;;;;;;;4808580;29;20061;-66
2023/03/20 02:44:02;;;;;;;6.40;1.98;;;;;;;;;;4850282;29;20412;-66
2023/03/20 02:46:38;;;;;;;6.32;2.20;;;;;;;;;;4814821;29;20055;-67
2023/03/20 02:49:15;;;;;;;7.15;2.28;;;;;;;;;;4803008;29;20059;-65
2023/03/20 02:51:56;;;;;;;6.90;2.00;;;;;;;;;;4836225;29;20054;-66
2023/03/20 02:54:42;;;;;;;9.25;2.10;;;;;;;;;;4839501;29;20054;-66
2023/03/20 02:57:22;;;;;;;6.93;1.98;;;;;;;;;;4855974;29;20065;-67
2023/03/20 02:59:52;;;;;;;7.22;2.20;;;;;;;;;;4857684;29;20058;-67
2023/03/20 03:02:34;;;;;;;7.28;2.58;;;;;;;;;;4844003;29;20072;-66
2023/03/20 03:05:15;;;;;;;6.20;1.90;;;;;;;;;;4876244;29;20057;-66
2023/03/20 03:07:48;;;;;;;5.50;1.90;;;;;;;;;;4876186;29;20045;-66
2023/03/20 03:10:52;;;;;;;7.70;2.10;;;;;;;;;;4823963;29;20518;-67
2023/03/20 03:13:28;;;;;;;7.88;2.00;;;;;;;;;;4850918;29;20164;-66
2023/03/20 03:16:06;;;;;;;13.52;2.95;;;;;;;;;;4857727;29;20417;-67
2023/03/20 03:18:38;;;;;;;7.05;2.13;;;;;;;;;;4857611;29;20514;-66
2023/03/20 03:21:12;;;;;;;8.45;2.40;;;;;;;;;;4867094;29;20050;-66
2023/03/20 03:23:47;;;;;;;6.90;2.20;;;;;;;;;;4892507;29;20049;-66
2023/03/20 03:26:25;;;;;;;9.05;2.17;;;;;;;;;;4913580;29;20504;-66
2023/03/20 03:29:03;;;;;;;5.15;2.00;;;;;;;;;;4895326;29;20498;-67
2023/03/20 03:31:37;;;;;;;8.73;2.22;;;;;;;;;;4899817;29;20083;-67
2023/03/20 03:34:14;;;;;;;6.15;2.13;;;;;;;;;;4917310;29;20059;-67
2023/03/20 03:37:08;;;;;;;8.60;2.17;;;;;;;;;;4932641;29;20062;-66
2023/03/20 03:39:49;;;;;;;9.65;1.83;;;;;;;;;;4913553;29;20516;-66
2023/03/20 03:42:30;;;;;;;27.60;3.10;;;;;;;;;;4919558;29;20047;-65
2023/03/20 03:45:21;;;;;;;11.80;2.67;;;;;;;;;;4957623;28;20776;-65
2023/03/20 03:48:00;;;;;;;4.78;2.05;;;;;;;;;;4970631;28;20545;-65
2023/03/20 03:50:39;;;;;;;5.03;2.05;;;;;;;;;;4930321;29;20051;-65
2023/03/20 03:53:13;;;;;;;6.70;1.90;;;;;;;;;;4948305;29;20056;-66
2023/03/20 03:55:49;;;;;;;9.73;2.60;;;;;;;;;;4950864;28;20403;-65
2023/03/20 03:58:22;;;;;;;4.28;1.98;;;;;;;;;;4970234;28;20042;-65
2023/03/20 04:00:54;;;;;;;7.13;2.15;;;;;;;;;;4950998;29;20167;-66
2023/03/20 04:03:34;;;;;;;13.30;2.50;;;;;;;;;;4939835;29;20074;-65
2023/03/20 04:06:05;;;;;;;;;;;;;;;;;;4927049;29;20073;-65
2023/03/20 04:08:35;;;;;;;3.72;1.98;;;;;;;;;;4944737;29;19923;-65
2023/03/20 04:11:06;;;;;;;4.72;1.83;;;;;;;;;;4935668;29;20067;-66
2023/03/20 04:13:36;;;;;;;6.25;1.83;;;;;;;;;;4932058;29;20067;-65
2023/03/20 04:16:10;;;;;;;5.13;2.10;;;;;;;;;;4932063;29;20419;-66
2023/03/20 04:18:41;;;;;;;6.68;1.95;;;;;;;;;;4912930;29;20064;-65
2023/03/20 04:21:14;;;;;;;6.95;2.40;;;;;;;;;;4912632;29;20048;-66
2023/03/20 04:23:45;;;;;;;4.00;1.85;;;;;;;;;;4912680;29;20052;-66
2023/03/20 04:26:16;;;;;;;5.18;2.20;;;;;;;;;;4893697;29;20211;-65
2023/03/20 04:28:46;;;;;;;6.68;1.85;;;;;;;;;;4847988;29;20058;-65
2023/03/20 04:31:33;;;;;;;6.50;2.08;;;;;;;;;;4823964;29;20058;-65
2023/03/20 04:34:23;;;;;;;14.82;2.28;;;;;;;;;;4820348;29;20411;-66
2023/03/20 04:37:22;;;;;;;4.95;1.95;;;;;;;;;;4855793;29;20049;-65
2023/03/20 04:40:11;;;;;;;6.65;1.83;;;;;;;;;;4874529;29;20057;-67
2023/03/20 04:42:43;;;;;;;3.97;1.58;;;;;;;;;;4860291;29;20061;-65
2023/03/20 04:45:13;;;;;;;4.63;1.98;;;;;;;;;;4856716;29;20083;-66
2023/03/20 04:47:43;;;;;;;7.68;1.80;;;;;;;;;;4877212;29;20056;-66
2023/03/20 04:50:13;;;;;;;6.30;2.03;;;;;;;;;;4845755;29;20422;-65
2023/03/20 04:52:44;;;;;;;6.40;2.00;;;;;;;;;;4878784;29;20508;-65
2023/03/20 04:55:15;;;;;;;7.38;1.73;;;;;;;;;;4847957;29;20169;-65
2023/03/20 04:57:47;;;;;;;3.50;1.42;;;;;;;;;;4863188;29;20057;-65
2023/03/20 05:00:17;;;;;;;4.43;1.65;;;;;;;;;;4840781;29;20050;-65
2023/03/20 05:02:47;;;;;;;5.28;1.77;;;;;;;;;;4858769;29;20057;-66
2023/03/20 05:05:17;;;;;;;5.50;1.95;;;;;;;;;;4840551;29;20054;-65
2023/03/20 05:07:47;;;;;;;4.15;1.65;;;;;;;;;;4823003;29;20047;-65
2023/03/20 05:10:24;;;;;;;4.47;1.63;;;;;;;;;;4833469;29;20066;-65
2023/03/20 05:13:02;;;;;;;;;;;;;;;;;;4805062;29;20054;-65
2023/03/20 05:16:05;;;;;;;3.30;1.63;;;;;;;;;;4834259;29;19925;-65
2023/03/20 05:18:43;;;;;;;5.47;1.83;;;;;;;;;;4822688;29;20050;-65
2023/03/20 05:21:16;;;;;;;7.45;2.05;;;;;;;;;;4831396;29;20053;-66
2023/03/20 05:24:04;;;;;;;5.35;1.92;;;;;;;;;;4859484;29;20057;-65
2023/03/20 05:26:47;;;;;;;5.80;2.08;;;;;;;;;;4859686;29;20054;-66
2023/03/20 05:29:37;;;;;;;3.50;1.55;;;;;;;;;;4850174;29;20068;-66
2023/03/20 05:32:35;;;;;;;4.53;1.88;;;;;;;;;;4859734;29;20053;-65
2023/03/20 05:35:15;;;;;;;8.75;1.70;;;;;;;;;;4896742;29;20513;-65
2023/03/20 05:37:56;;;;;;;5.70;2.15;;;;;;;;;;4915712;29;20067;-65
2023/03/20 05:40:49;;;;;;;9.40;1.83;;;;;;;;;;4896729;29;20044;-66
2023/03/20 05:43:28;;;;;;;4.30;1.52;;;;;;;;;;4893018;29;20065;-65
2023/03/20 05:46:25;;;;;;;4.63;1.73;;;;;;;;;;4878291;29;20049;-65
2023/03/20 05:49:26;;;;;;;7.05;2.00;;;;;;;;;;4884687;29;20052;-65
2023/03/20 05:52:22;;;;;;;6.85;2.22;;;;;;;;;;4895015;29;20545;-65
2023/03/20 05:55:14;;;;;;;9.05;2.28;;;;;;;;;;4877906;29;20060;-65
2023/03/20 05:58:10;;;;;;;3.88;1.65;;;;;;;;;;4877579;29;20450;-65
2023/03/20 06:00:45;;;;;;;3.88;1.65;;;;;;;;;;4848104;29;20065;-65
2023/03/20 06:03:36;;;;;;;6.43;1.88;;;;;;;;;;4877697;29;20072;-65
2023/03/20 06:06:14;;;;;;;4.63;2.15;;;;;;;;;;4880682;29;20057;-65
2023/03/20 06:08:49;;;;;;;3.55;1.52;;;;;;;;;;4885886;29;20058;-65
2023/03/20 06:11:20;;;;;;;6.55;1.83;;;;;;;;;;4858719;29;20057;-65
2023/03/20 06:13:53;;;;;;;5.55;1.73;;;;;;;;;;4877296;29;20056;-65
2023/03/20 06:16:27;;;;;;;4.47;1.63;;;;;;;;;;4877184;29;20061;-65
2023/03/20 06:18:58;;;;;;;4.88;1.75;;;;;;;;;;4891093;29;20515;-65
2023/03/20 06:21:29;;;;;;;4.88;1.80;;;;;;;;;;4895757;29;20064;-65
2023/03/20 06:24:00;;;;;;;6.55;2.17;;;;;;;;;;4877621;29;20077;-65
2023/03/20 06:26:30;;;;;;;3.38;1.80;;;;;;;;;;4876987;29;20412;-65
2023/03/20 06:29:04;;;;;;;3.13;1.70;;;;;;;;;;4910404;29;20052;-65
2023/03/20 06:31:34;;;;;;;3.55;1.70;;;;;;;;;;4910800;29;20056;-66
2023/03/20 06:34:06;;;;;;;6.18;2.00;;;;;;;;;;4891848;29;20068;-65
2023/03/20 06:36:42;;;;;;;4.13;1.70;;;;;;;;;;4792733;29;20054;-65
2023/03/20 06:39:20;;;;;;;5.30;1.80;;;;;;;;;;4821762;29;20149;-65
2023/03/20 06:41:52;;;;;;;5.80;1.73;;;;;;;;;;4805417;29;20053;-65
2023/03/20 06:44:25;;;;;;;4.78;1.65;;;;;;;;;;4852492;29;20502;-67
2023/03/20 06:47:02;;;;;;;7.43;1.83;;;;;;;;;;4858300;29;20057;-65
2023/03/20 06:49:32;;;;;;;6.80;2.00;;;;;;;;;;4858015;29;20072;-65
2023/03/20 06:52:03;;;;;;;6.63;1.98;;;;;;;;;;4876522;29;20049;-65
2023/03/20 06:54:34;;;;;;;5.60;2.03;;;;;;;;;;4882284;29;20052;-65
2023/03/20 06:57:04;;;;;;;5.82;2.15;;;;;;;;;;4874106;29;20070;-65
2023/03/20 06:59:34;;;;;;;6.75;2.03;;;;;;;;;;4888727;29;20118;-65
2023/03/20 07:02:04;;;;;;;7.88;1.95;;;;;;;;;;4887986;29;20057;-66
2023/03/20 07:04:35;;;;;;;8.05;2.40;;;;;;;;;;4910422;29;20056;-66
2023/03/20 07:07:05;;;;;;;6.95;2.05;;;;;;;;;;4894877;29;20059;-66
2023/03/20 07:09:35;;;;;;;4.43;1.90;;;;;;;;;;4894867;29;20059;-65
2023/03/20 07:12:13;;;;;;;5.57;2.20;;;;;;;;;;4913776;29;20047;-65
2023/03/20 07:14:44;;;;;;;4.03;1.88;;;;;;;;;;4935137;29;20242;-65
2023/03/20 07:17:18;;;;;;;7.88;2.00;;;;;;;;;;4928582;29;20060;-66
2023/03/20 07:19:48;;;;;;;4.95;1.85;;;;;;;;;;4932450;29;20091;-65
2023/03/20 07:22:27;;;;;;;4.22;1.80;;;;;;;;;;4955024;28;20055;-65
2023/03/20 07:25:13;;;;;;;5.75;1.83;;;;;;;;;;4970812;28;20062;-66
2023/03/20 07:27:49;;;;;;;5.15;1.88;;;;;;;;;;4937803;29;20059;-65
2023/03/20 07:30:22;;;;;;;3.15;1.48;;;;;;;;;;4932386;29;20067;-66
2023/03/20 07:32:54;;;;;;;6.68;2.05;;;;;;;;;;4917254;29;20063;-66
2023/03/20 07:35:28;;;;;;;6.60;2.15;;;;;;;;;;4902169;29;20060;-66
2023/03/20 07:37:58;;;;;;;5.68;2.08;;;;;;;;;;4897144;29;20052;-67
2023/03/20 07:40:28;;;;;;;5.95;2.25;;;;;;;;;;4963122;28;20106;-66
2023/03/20 07:43:02;;;;;;;6.10;2.25;;;;;;;;;;4970372;28;20059;-67
2023/03/20 07:46:02;;;;;;;4.05;1.80;;;;;;;;;;4932050;29;20052;-66
2023/03/20 07:48:35;;;;;;;5.90;1.90;;;;;;;;;;4921836;29;20048;-66
2023/03/20 07:51:05;;;;;;;8.23;2.40;;;;;;;;;;4951236;29;20055;-66
2023/03/20 07:53:35;;;;;;;5.57;2.50;;;;;;;;;;4960096;28;20443;-66
2023/03/20 07:56:06;;;;;;;3.55;1.50;;;;;;;;;;4932087;29;20531;-66
2023/03/20 07:58:36;;;;;;;4.70;1.80;;;;;;;;;;4876780;29;20091;-67
2023/03/20 08:01:06;;;;;;;4.20;1.77;;;;;;;;;;4875341;29;20173;-66
2023/03/20 08:03:37;;;;;;;4.53;1.88;;;;;;;;;;4875814;29;20072;-67
2023/03/20 08:06:08;;;;;;;5.20;2.30;;;;;;;;;;4830313;29;20069;-66
2023/03/20 08:08:38;;;;;;;5.85;2.40;;;;;;;;;;4828605;29;20058;-66
2023/03/20 08:11:08;;;;;;;7.75;2.50;;;;;;;;;;4812360;29;20071;-67
2023/03/20 08:13:38;;;;;;;5.97;2.05;;;;;;;;;;4830677;29;20069;-66
2023/03/20 08:16:08;;;;;;;6.68;2.17;;;;;;;;;;4850021;29;20058;-66
2023/03/20 08:18:38;;;;;;;4.90;2.17;;;;;;;;;;4873786;29;20061;-66
2023/03/20 08:21:08;;;;;;;3.83;1.92;;;;;;;;;;4866996;29;20061;-66
2023/03/20 08:23:38;;;;;;;5.57;2.00;;;;;;;;;;4875897;29;20065;-67
2023/03/20 08:26:08;;;;;;;6.05;1.85;;;;;;;;;;4869230;29;20057;-67
2023/03/20 08:28:38;;;;;;;5.82;2.28;;;;;;;;;;4891966;29;20420;-66
2023/03/20 08:31:17;;;;;;;4.03;1.98;;;;;;;;;;4949900;28;20054;-67
2023/03/20 08:33:47;;;;;;;6.82;2.20;;;;;;;;;;4991115;28;20060;-66
2023/03/20 08:36:21;;;;;;;5.05;1.65;;;;;;;;;;5017227;28;20057;-66
2023/03/20 08:38:51;;;;;;;4.03;1.83;;;;;;;;;;5038010;28;20056;-66
2023/03/20 08:41:21;;;;;;;6.60;2.08;;;;;;;;;;5039730;28;20060;-66
2023/03/20 08:43:51;;;;;;;5.40;2.13;;;;;;;;;;5039641;28;20048;-67
2023/03/20 08:46:21;;;;;;;5.70;2.25;;;;;;;;;;5072940;28;20079;-67
2023/03/20 08:48:50;;;;;;;4.78;2.10;;;;;;;;;;5072903;28;20052;-66
2023/03/20 08:51:21;;;;;;;5.45;2.03;;;;;;;;;;5072960;28;20459;-67
2023/03/20 08:53:51;;;;;;;6.50;2.80;;;;;;;;;;5056334;28;20044;-66
2023/03/20 08:56:25;;;;;;;5.05;2.20;;;;;;;;;;5072748;28;20076;-67
2023/03/20 08:58:54;;;;;;;4.85;2.75;;;;;;;;;;5052223;28;20158;-67
2023/03/20 09:01:24;;;;;;;5.70;2.60;;;;;;;;;;5030541;28;20056;-66
2023/03/20 09:04:15;;;;;;;5.65;2.00;;;;;;;;;;5072442;28;20057;-66
2023/03/20 09:06:46;;;;;;;5.18;2.97;;;;;;;;;;5023015;28;20504;-67
2023/03/20 09:09:18;;;;;;;3.72;2.05;;;;;;;;;;5022624;28;20411;-66
2023/03/20 09:11:48;;;;;;;6.18;2.08;;;;;;;;;;5072562;28;20057;-66
2023/03/20 09:14:20;;;;;;;5.53;2.05;;;;;;;;;;5072482;28;20041;-66
2023/03/20 09:16:50;;;;;;;4.20;2.03;;;;;;;;;;5072465;28;20389;-67
2023/03/20 09:19:20;;;;;;;5.72;1.92;;;;;;;;;;5072399;28;20059;-67
2023/03/20 09:21:50;;;;;;;4.30;1.90;;;;;;;;;;5052064;28;20060;-66
2023/03/20 09:24:20;;;;;;;3.83;2.10;;;;;;;;;;5052130;28;20053;-67
2023/03/20 09:26:51;;;;;;;4.93;1.73;;;;;;;;;;5050953;28;20084;-66
2023/03/20 09:29:21;;;;;;;3.85;2.05;;;;;;;;;;5051836;28;20542;-67
2023/03/20 09:31:53;;;;;;;6.32;1.88;;;;;;;;;;5052049;28;20049;-68
2023/03/20 09:34:23;;;;;;;10.15;2.20;;;;;;;;;;5051814;28;20061;-67
2023/03/20 09:36:53;;;;;;;7.43;2.22;;;;;;;;;;5024695;28;20057;-67
2023/03/20 09:39:23;;;;;;;4.32;1.92;;;;;;;;;;5015257;28;20105;-66
2023/03/20 09:41:53;;;;;;;11.10;2.00;;;;;;;;;;5032028;28;20060;-65
2023/03/20 09:44:51;;;;;;;6.45;1.70;;;;;;;;;;5032209;28;20146;-66
2023/03/20 09:47:30;;;;;;;6.15;1.90;;;;;;;;;;4982992;28;20057;-65
2023/03/20 09:50:33;;;;;;;10.18;2.67;;;;;;;;;;5031885;28;20405;-65
2023/03/20 09:53:11;;;;;;;6.75;1.85;;;;;;;;;;4982814;28;20057;-65
2023/03/20 09:55:42;;;;;;;5.20;2.40;;;;;;;;;;4982975;28;20053;-66
2023/03/20 09:58:20;;;;;;;4.32;1.95;;;;;;;;;;5031315;28;20064;-65
2023/03/20 10:00:51;;;;;;;7.55;1.88;;;;;;;;;;5051484;28;20061;-67
2023/03/20 10:03:31;;;;;;;7.80;2.40;;;;;;;;;;5051296;28;20060;-66
2023/03/20 10:06:11;;;;;;;6.90;2.25;;;;;;;;;;5051253;28;20145;-66
2023/03/20 10:08:43;;;;;;;6.10;2.40;;;;;;;;;;5051394;28;20061;-65
2023/03/20 10:11:35;;;;;;;4.35;2.15;;;;;;;;;;5051152;28;20536;-65
2023/03/20 10:14:21;;;;;;;8.57;2.08;;;;;;;;;;5064864;28;20051;-66
2023/03/20 10:17:03;;;;;;;6.05;2.00;;;;;;;;;;5093624;28;20055;-65
2023/03/20 10:19:41;;;;;;;6.45;2.28;;;;;;;;;;5091060;28;20054;-65
2023/03/20 10:22:33;;;;;;;7.20;2.60;;;;;;;;;;5091308;28;20063;-65
2023/03/20 10:25:40;;;;;;;6.35;2.25;;;;;;;;;;5058087;28;20056;-65
2023/03/20 10:28:21;;;;;;;6.57;2.42;;;;;;;;;;5090818;28;20044;-65
2023/03/20 10:31:16;;;;;;;6.13;1.92;;;;;;;;;;5091291;28;20047;-66
2023/03/20 10:33:51;;;;;;;11.55;2.45;;;;;;;;;;5091113;28;20059;-66
2023/03/20 10:36:37;;;;;;;9.02;2.60;;;;;;;;;;5070242;28;20057;-66
2023/03/20 10:39:35;;;;;;;9.00;2.83;;;;;;;;;;5070261;28;20048;-65
2023/03/20 10:42:14;;;;;;;12.02;3.50;;;;;;;;;;5070902;28;20044;-65
2023/03/20 10:44:50;;;;;;;9.63;3.92;;;;;;;;;;5053706;28;20377;-65
2023/03/20 10:47:24;;;;;;;6.68;2.85;;;;;;;;;;5020678;28;20048;-67
2023/03/20 10:50:06;;;;;;;8.70;2.88;;;;;;;;;;5027030;28;20050;-65
2023/03/20 10:52:40;;;;;;;8.60;2.75;;;;;;;;;;4978387;28;20528;-65
2023/03/20 10:55:27;;;;;;;9.13;2.63;;;;;;;;;;5010478;28;20050;-65
2023/03/20 10:58:21;;;;;;;4.82;2.33;;;;;;;;;;5010547;28;20525;-64
2023/03/20 11:00:54;;;;;;;13.73;2.55;;;;;;;;;;4952274;29;20047;-66
2023/03/20 11:03:28;;;;;;;8.13;2.35;;;;;;;;;;4984490;28;20058;-66
2023/03/20 11:06:02;;;;;;;6.03;2.10;;;;;;;;;;4971187;28;20043;-65
2023/03/20 11:08:42;;;;;;;7.93;2.72;;;;;;;;;;5009042;28;20054;-65
2023/03/20 11:11:12;;;;;;;4.60;1.98;;;;;;;;;;5010442;28;20540;-65
2023/03/20 11:13:44;;;;;;;3.80;1.90;;;;;;;;;;4961634;28;20066;-68
2023/03/20 11:16:21;;;;;;;7.30;1.98;;;;;;;;;;5010912;28;20065;-65
2023/03/20 11:18:53;;;;;;;6.45;1.70;;;;;;;;;;5010413;28;20069;-64
2023/03/20 11:21:30;;;;;;;6.20;2.10;;;;;;;;;;4978024;28;20050;-64
2023/03/20 11:24:01;;;;;;;4.97;1.73;;;;;;;;;;5010119;28;20062;-64
2023/03/20 11:26:41;;;;;;;4.32;1.65;;;;;;;;;;5011679;28;20050;-65
2023/03/20 11:29:39;;;;;;;5.40;2.10;;;;;;;;;;4981293;28;20448;-65
2023/03/20 11:32:21;;;;;;;7.20;2.05;;;;;;;;;;4948104;28;20498;-64
2023/03/20 11:34:56;;;;;;;4.28;1.77;;;;;;;;;;4955579;28;20525;-64
2023/03/20 11:37:32;;;;;;;6.03;1.75;;;;;;;;;;4951314;29;20392;-65
2023/03/20 11:40:22;;;;;;;4.03;1.98;;;;;;;;;;4951737;29;20059;-63
2023/03/20 11:43:09;;;;;;;4.10;1.80;;;;;;;;;;4955261;28;20073;-65
2023/03/20 11:45:43;;;;;;;12.60;2.13;;;;;;;;;;4971062;28;20054;-63
2023/03/20 11:48:39;;;;;;;6.72;1.80;;;;;;;;;;4970516;28;20090;-64
2023/03/20 11:51:14;;;;;;;6.72;1.98;;;;;;;;;;4932291;29;20082;-64
2023/03/20 11:53:47;;;;;;;4.50;1.85;;;;;;;;;;4932164;29;20086;-64
2023/03/20 11:56:31;;;;;;;5.28;1.88;;;;;;;;;;4916932;29;20067;-64
2023/03/20 11:59:10;;;;;;;6.18;1.70;;;;;;;;;;4932169;29;20103;-64
2023/03/20 12:01:52;;;;;;;6.15;1.85;;;;;;;;;;4932229;29;20056;-64
2023/03/20 12:04:42;;;;;;;5.78;1.75;;;;;;;;;;4900687;29;20052;-64
2023/03/20 12:07:15;;;;;;;3.95;1.63;;;;;;;;;;4885177;29;20530;-63
2023/03/20 12:09:53;;;;;;;8.98;2.25;;;;;;;;;;4946743;29;20055;-63
2023/03/20 12:12:47;;;;;;;5.60;1.63;;;;;;;;;;4951048;29;20067;-65
2023/03/20 12:15:22;;;;;;;5.85;1.50;;;;;;;;;;4958015;28;20062;-64
2023/03/20 12:18:13;;;;;;;2.65;1.20;;;;;;;;;;4989925;28;20063;-64
2023/03/20 12:21:10;;;;;;;5.30;1.35;;;;;;;;;;4958440;28;20046;-64
2023/03/20 12:23:45;;;;;;;5.55;1.50;;;;;;;;;;4989614;28;20176;-63
2023/03/20 12:26:46;;;;;;;3.55;1.33;;;;;;;;;;4989731;28;20054;-65
2023/03/20 12:29:18;;;;;;;;;;;;;;;;;;5008069;28;20632;-65
2023/03/20 12:31:54;;;;;;;3.38;1.55;;;;;;;;;;5009618;28;19922;-63
2023/03/20 12:34:28;;;;;;;4.18;1.40;;;;;;;;;;4974039;28;20540;-62
2023/03/20 12:36:59;;;;;;;6.78;1.50;;;;;;;;;;4957547;28;20054;-62
2023/03/20 12:39:40;;;;;;;10.00;3.17;;;;;;;;;;4970103;28;20403;-62
2023/03/20 12:42:28;;;;;;;14.55;7.90;;;;;;;;;;4951007;29;20055;-63
2023/03/20 12:45:17;;;;;;;42.22;14.50;;;;;;;;;;4951104;29;20055;-63
2023/03/20 12:47:47;;;;;;;13.57;8.05;;;;;;;;;;4891048;29;20052;-63
2023/03/20 12:50:26;;;;;;;8.32;2.70;;;;;;;;;;4943769;29;20071;-63
2023/03/20 12:53:04;;;;;;;24.27;14.85;;;;;;;;;;4950927;29;20535;-63
2023/03/20 12:55:33;;;;;;;;;;;;;;;;;;4967047;28;20408;-62
2023/03/20 12:58:21;;;;;;;4.40;2.17;;;;;;;;;;4977010;28;19921;-62
2023/03/20 13:01:08;;;;;;;5.53;1.23;;;;;;;;;;4971317;28;20055;-63
2023/03/20 13:03:52;;;;;;;6.43;1.30;;;;;;;;;;4941882;28;20050;-63
2023/03/20 13:06:50;;;;;;;3.53;1.40;;;;;;;;;;4973699;28;20051;-62
2023/03/20 13:09:31;;;;;;;3.85;1.13;;;;;;;;;;4977245;28;20061;-63
2023/03/20 13:12:18;;;;;;;4.80;1.00;;;;;;;;;;4982611;28;20046;-63
2023/03/20 13:15:02;;;;;;;3.13;1.20;;;;;;;;;;4954031;28;20051;-63
2023/03/20 13:17:47;;;;;;;;;;;;;;;;;;4954740;28;20051;-63
2023/03/20 13:21:01;;;;;;;3.20;1.20;;;;;;;;;;4954302;28;20354;-63
2023/03/20 13:23:34;;;;;;;3.75;1.20;;;;;;;;;;4900188;29;20052;-62
2023/03/20 13:26:25;;;;;;;5.88;1.10;;;;;;;;;;4884564;29;20040;-63
2023/03/20 13:28:58;;;;;;;5.13;1.30;;;;;;;;;;4915990;29;20048;-63
2023/03/20 13:31:43;;;;;;;3.22;1.10;;;;;;;;;;4915968;29;20060;-62
2023/03/20 13:34:18;;;;;;;5.68;0.90;;;;;;;;;;4915830;29;20104;-63
2023/03/20 13:37:12;;;;;;;2.22;1.02;;;;;;;;;;4915839;29;20056;-63
2023/03/20 13:40:10;;;;;;;3.70;1.30;;;;;;;;;;4886848;29;20514;-65
2023/03/20 13:43:01;;;;;;;2.72;1.52;;;;;;;;;;4877721;29;20065;-62
2023/03/20 13:45:41;;;;;;;4.68;1.17;;;;;;;;;;4877888;29;20061;-64
2023/03/20 13:48:45;;;;;;;4.32;1.50;;;;;;;;;;4889122;29;20544;-62
2023/03/20 13:51:29;;;;;;;4.32;2.03;;;;;;;;;;4952980;28;20051;-63
2023/03/20 13:54:26;;;;;;;4.45;1.73;;;;;;;;;;4991906;28;20061;-63
2023/03/20 13:57:10;;;;;;;3.05;1.60;;;;;;;;;;4985689;28;20054;-62
2023/03/20 14:00:01;;;;;;;5.47;1.35;;;;;;;;;;5031777;28;20128;-63
2023/03/20 14:02:51;;;;;;;4.10;1.88;;;;;;;;;;5051585;28;20057;-62
2023/03/20 14:05:25;;;;;;;4.30;2.00;;;;;;;;;;5001505;28;20536;-63
2023/03/20 14:07:57;;;;;;;4.55;1.88;;;;;;;;;;5030419;28;20549;-71
2023/03/20 14:10:32;;;;;;;3.70;1.77;;;;;;;;;;5050920;28;20044;-64
2023/03/20 14:13:13;;;;;;;4.07;1.40;;;;;;;;;;5030391;28;20076;-62
2023/03/20 14:15:53;;;;;;;3.85;1.50;;;;;;;;;;5028759;28;20049;-65
2023/03/20 14:18:25;;;;;;;4.93;1.60;;;;;;;;;;5010186;28;20646;-62
2023/03/20 14:21:03;;;;;;;5.78;1.70;;;;;;;;;;5010759;28;20050;-63
2023/03/20 14:23:59;;;;;;;7.68;1.70;;;;;;;;;;5011663;28;20058;-63
2023/03/20 14:26:34;;;;;;;5.22;1.50;;;;;;;;;;5011231;28;20529;-65
2023/03/20 14:29:11;;;;;;;2.45;1.52;;;;;;;;;;5010822;28;20065;-62
2023/03/20 14:31:43;;;;;;;5.03;1.45;;;;;;;;;;5011260;28;20070;-63
2023/03/20 14:34:25;;;;;;;4.78;1.30;;;;;;;;;;4978317;28;20057;-62
2023/03/20 14:37:34;;;;;;;3.78;1.80;;;;;;;;;;4962711;28;20076;-66
2023/03/20 14:40:13;;;;;;;3.42;1.38;;;;;;;;;;4978430;28;20414;-63
2023/03/20 14:42:59;;;;;;;2.92;1.10;;;;;;;;;;5029169;28;20053;-63
2023/03/20 14:45:54;;;;;;;2.22;1.17;;;;;;;;;;5041047;28;20070;-64
2023/03/20 14:48:40;;;;;;;2.80;1.10;;;;;;;;;;5075571;28;20044;-63
2023/03/20 14:51:36;;;;;;;6.80;1.33;;;;;;;;;;5093258;28;20044;-63
2023/03/20 14:54:21;;;;;;;2.47;1.10;;;;;;;;;;5053165;28;20044;-64
2023/03/20 14:56:52;;;;;;;5.93;0.95;;;;;;;;;;5070161;28;20053;-63
2023/03/20 14:59:23;;;;;;;3.38;0.90;;;;;;;;;;5070118;28;20057;-63
2023/03/20 15:02:01;;;;;;;5.35;1.15;;;;;;;;;;5070257;28;20191;-63
2023/03/20 15:04:39;;;;;;;4.75;1.30;;;;;;;;;;5036813;28;20103;-63
2023/03/20 15:07:23;;;;;;;5.80;1.42;;;;;;;;;;5049909;28;20539;-65
2023/03/20 15:09:59;;;;;;;5.13;1.67;;;;;;;;;;5048981;28;20159;-65
2023/03/20 15:12:36;;;;;;;3.42;1.30;;;;;;;;;;5049799;28;20061;-63
2023/03/20 15:15:21;;;;;;;3.83;1.20;;;;;;;;;;5050348;28;20497;-63
2023/03/20 15:17:52;;;;;;;4.78;1.20;;;;;;;;;;5016944;28;20061;-66
2023/03/20 15:20:24;;;;;;;2.25;1.10;;;;;;;;;;5049691;28;20049;-64
2023/03/20 15:22:59;;;;;;;2.55;1.20;;;;;;;;;;5049299;28;20057;-63
2023/03/20 15:25:47;;;;;;;3.20;1.48;;;;;;;;;;5049542;28;20432;-64
2023/03/20 15:28:22;;;;;;;4.38;1.15;;;;;;;;;;5049674;28;20051;-63
2023/03/20 15:30:55;;;;;;;3.10;1.20;;;;;;;;;;5052779;28;20060;-63
2023/03/20 15:33:27;;;;;;;5.20;1.20;;;;;;;;;;5069777;28;20052;-66
2023/03/20 15:35:57;;;;;;;4.88;1.50;;;;;;;;;;5049247;28;20056;-65
2023/03/20 15:38:33;;;;;;;2.97;1.60;;;;;;;;;;5049772;28;20057;-65
2023/03/20 15:41:07;;;;;;;3.00;1.02;;;;;;;;;;5049355;28;20057;-66
2023/03/20 15:43:37;;;;;;;2.60;1.10;;;;;;;;;;5000057;28;20057;-69
2023/03/20 15:46:09;;;;;;;5.00;1.27;;;;;;;;;;5016421;28;20056;-65
2023/03/20 15:48:48;;;;;;;2.58;1.05;;;;;;;;;;5000263;28;20421;-69